createdAt,value
2018-05-24T00:00:31.711Z,18.72
2018-05-24T00:03:00.056Z,18.56
2018-05-24T00:05:28.369Z,18.48
2018-05-24T00:07:56.795Z,18.54
2018-05-24T00:10:25.037Z,18.35
2018-05-24T00:12:53.384Z,18.31
2018-05-24T00:15:21.701Z,18.34
2018-05-24T00:17:50.040Z,18.27
2018-05-24T00:20:18.358Z,18.21
2018-05-24T00:22:46.697Z,18.11
2018-05-24T00:25:15.013Z,18.01
2018-05-24T00:27:43.356Z,17.96
2018-05-24T00:30:11.672Z,17.94
2018-05-24T00:32:40.004Z,17.86
2018-05-24T00:35:08.328Z,17.82
2018-05-24T00:37:36.665Z,17.79
2018-05-24T00:40:04.985Z,17.84
2018-05-24T00:42:33.329Z,17.89
2018-05-24T00:45:01.650Z,17.92
2018-05-24T00:47:29.988Z,17.96
2018-05-24T00:49:58.313Z,18.03
2018-05-24T00:52:26.657Z,17.94
2018-05-24T00:55:06.669Z,17.98
2018-05-24T00:57:35.009Z,17.96
2018-05-24T01:00:03.332Z,18.02
2018-05-24T01:02:31.668Z,18.00
2018-05-24T01:04:59.992Z,18.02
2018-05-24T01:07:28.336Z,18.04
2018-05-24T01:09:56.657Z,17.97
2018-05-24T01:12:24.996Z,17.97
2018-05-24T01:14:53.320Z,18.01
2018-05-24T01:17:21.660Z,17.94
2018-05-24T01:19:49.976Z,17.89
2018-05-24T01:22:18.311Z,17.87
2018-05-24T01:24:46.641Z,17.87
2018-05-24T01:27:15.026Z,17.87
2018-05-24T01:29:43.305Z,17.82
2018-05-24T01:32:11.651Z,17.81
2018-05-24T01:34:39.972Z,17.78
2018-05-24T01:37:20.108Z,17.69
2018-05-24T01:39:48.433Z,17.68
2018-05-24T01:42:16.772Z,17.69
2018-05-24T01:44:45.096Z,17.69
2018-05-24T01:47:13.428Z,17.83
2018-05-24T01:49:41.750Z,17.67
2018-05-24T01:52:10.109Z,17.63
2018-05-24T01:54:38.421Z,17.49
2018-05-24T01:57:06.745Z,17.57
2018-05-24T01:59:35.090Z,17.59
2018-05-24T02:02:03.412Z,17.53
2018-05-24T02:04:31.762Z,17.44
2018-05-24T02:07:00.076Z,17.14
2018-05-24T02:09:28.416Z,16.99
2018-05-24T02:11:56.735Z,16.93
2018-05-24T02:14:25.096Z,17.02
2018-05-24T02:16:53.396Z,17.13
2018-05-24T02:19:21.736Z,17.05
2018-05-24T02:21:50.057Z,16.92
2018-05-24T02:24:18.396Z,16.90
2018-05-24T02:26:46.712Z,16.88
2018-05-24T02:29:15.053Z,16.76
2018-05-24T02:31:43.377Z,16.79
2018-05-24T02:34:11.716Z,16.72
2018-05-24T02:36:40.037Z,16.72
2018-05-24T02:39:08.398Z,16.63
2018-05-24T02:41:36.704Z,16.68
2018-05-24T02:44:05.041Z,16.58
2018-05-24T02:46:33.365Z,16.61
2018-05-24T02:49:01.713Z,16.58
2018-05-24T02:51:30.028Z,16.65
2018-05-24T02:53:58.374Z,16.56
2018-05-24T02:56:26.688Z,16.49
2018-05-24T02:58:55.025Z,16.51
2018-05-24T03:01:23.348Z,16.46
2018-05-24T03:03:51.689Z,16.42
2018-05-24T03:06:20.003Z,16.51
2018-05-24T03:08:48.341Z,16.44
2018-05-24T03:11:16.732Z,16.47
2018-05-24T03:13:45.078Z,16.34
2018-05-24T03:16:13.397Z,16.36
2018-05-24T03:18:41.737Z,16.42
2018-05-24T03:21:10.060Z,16.52
2018-05-24T03:23:38.405Z,16.45
2018-05-24T03:26:06.725Z,16.48
2018-05-24T03:28:35.060Z,16.47
2018-05-24T03:31:03.382Z,16.38
2018-05-24T03:33:31.718Z,16.36
2018-05-24T03:36:00.038Z,16.40
2018-05-24T03:38:28.372Z,16.41
2018-05-24T03:40:56.696Z,16.30
2018-05-24T03:43:25.028Z,16.32
2018-05-24T03:45:53.351Z,16.31
2018-05-24T03:48:21.689Z,16.33
2018-05-24T03:50:50.004Z,16.42
2018-05-24T03:53:18.325Z,16.43
2018-05-24T03:55:46.665Z,16.46
2018-05-24T03:58:14.985Z,16.42
2018-05-24T04:00:55.085Z,16.46
2018-05-24T04:03:36.123Z,16.32
2018-05-24T04:06:04.441Z,16.31
2018-05-24T04:08:32.785Z,16.26
2018-05-24T04:11:01.099Z,16.33
2018-05-24T04:13:29.419Z,16.33
2018-05-24T04:15:57.762Z,16.33
2018-05-24T04:18:26.076Z,16.34
2018-05-24T04:20:54.420Z,16.37
2018-05-24T04:23:22.838Z,16.27
2018-05-24T04:25:51.077Z,16.29
2018-05-24T04:28:19.400Z,16.34
2018-05-24T04:30:47.740Z,16.41
2018-05-24T04:33:16.061Z,16.48
2018-05-24T04:35:44.414Z,16.44
2018-05-24T04:38:13.052Z,16.40
2018-05-24T04:40:41.420Z,16.45
2018-05-24T04:43:09.744Z,16.52
2018-05-24T04:45:38.088Z,16.53
2018-05-24T04:48:06.412Z,16.55
2018-05-24T04:50:34.756Z,16.58
2018-05-24T04:53:03.077Z,16.61
2018-05-24T04:55:31.425Z,16.64
2018-05-24T04:57:59.748Z,16.73
2018-05-24T05:00:28.973Z,16.65
2018-05-24T05:02:57.292Z,16.74
2018-05-24T05:05:25.640Z,16.65
2018-05-24T05:07:53.960Z,16.77
2018-05-24T05:10:22.305Z,16.77
2018-05-24T05:12:50.632Z,16.87
2018-05-24T05:15:18.977Z,16.93
2018-05-24T05:17:47.301Z,17.08
2018-05-24T05:20:15.765Z,17.19
2018-05-24T05:22:44.089Z,17.20
2018-05-24T05:25:12.451Z,17.37
2018-05-24T05:27:40.760Z,17.38
2018-05-24T05:30:09.104Z,17.27
2018-05-24T05:32:37.428Z,17.39
2018-05-24T05:35:05.777Z,17.41
2018-05-24T05:37:34.159Z,17.45
2018-05-24T05:40:03.504Z,17.52
2018-05-24T05:42:31.829Z,17.41
2018-05-24T05:45:00.173Z,17.47
2018-05-24T05:47:28.500Z,17.58
2018-05-24T05:49:56.843Z,17.76
2018-05-24T05:52:25.168Z,17.61
2018-05-24T05:54:53.513Z,17.68
2018-05-24T05:57:21.841Z,17.53
2018-05-24T05:59:50.183Z,17.53
2018-05-24T06:02:18.511Z,17.47
2018-05-24T06:04:46.853Z,17.39
2018-05-24T06:07:15.180Z,17.40
2018-05-24T06:09:43.537Z,17.48
2018-05-24T06:12:11.868Z,17.50
2018-05-24T06:14:40.212Z,17.57
2018-05-24T06:17:08.565Z,17.67
2018-05-24T06:19:36.887Z,17.67
2018-05-24T06:22:05.237Z,17.77
2018-05-24T06:24:33.561Z,17.71
2018-05-24T06:27:01.911Z,17.78
2018-05-24T06:29:30.240Z,17.82
2018-05-24T06:31:58.591Z,17.90
2018-05-24T06:34:26.921Z,18.12
2018-05-24T06:36:55.271Z,18.28
2018-05-24T06:39:23.698Z,18.60
2018-05-24T06:41:52.032Z,18.88
2018-05-24T06:44:20.356Z,18.98
2018-05-24T06:46:48.705Z,19.10
2018-05-24T06:49:17.051Z,19.30
2018-05-24T06:51:45.374Z,19.54
2018-05-24T06:54:13.696Z,19.56
2018-05-24T06:56:42.300Z,19.73
2018-05-24T06:59:10.632Z,19.87
2018-05-24T07:01:39.046Z,19.97
2018-05-24T07:04:07.374Z,20.04
2018-05-24T07:06:35.721Z,20.20
2018-05-24T07:09:04.057Z,20.20
2018-05-24T07:11:32.405Z,20.33
2018-05-24T07:14:00.731Z,20.50
2018-05-24T07:16:29.077Z,20.76
2018-05-24T07:18:57.397Z,20.70
2018-05-24T07:21:25.758Z,20.63
2018-05-24T07:23:54.064Z,20.81
2018-05-24T07:26:22.413Z,20.90
2018-05-24T07:28:50.744Z,21.00
2018-05-24T07:31:19.102Z,21.13
2018-05-24T07:33:47.435Z,21.14
2018-05-24T07:36:18.102Z,21.31
2018-05-24T07:38:46.429Z,21.42
2018-05-24T07:41:14.781Z,21.57
2018-05-24T07:43:43.104Z,21.49
2018-05-24T07:46:11.456Z,21.31
2018-05-24T07:48:39.789Z,21.39
2018-05-24T07:51:08.241Z,21.45
2018-05-24T07:53:36.554Z,21.52
2018-05-24T07:56:05.868Z,21.54
2018-05-24T07:58:34.195Z,21.26
2018-05-24T08:01:02.556Z,21.06
2018-05-24T08:03:31.192Z,21.06
2018-05-24T08:05:59.545Z,21.06
2018-05-24T08:08:27.876Z,20.95
2018-05-24T08:10:56.231Z,21.01
2018-05-24T08:13:24.553Z,21.03
2018-05-24T08:15:52.895Z,21.06
2018-05-24T08:18:21.229Z,21.06
2018-05-24T08:20:49.556Z,21.19
2018-05-24T08:23:18.916Z,21.20
2018-05-24T08:25:47.248Z,21.25
2018-05-24T08:28:15.594Z,21.22
2018-05-24T08:30:43.929Z,21.19
2018-05-24T08:33:12.286Z,21.35
2018-05-24T08:35:40.608Z,21.49
2018-05-24T08:38:08.966Z,21.53
2018-05-24T08:40:37.793Z,21.47
2018-05-24T08:43:06.109Z,21.48
2018-05-24T08:45:34.432Z,21.41
2018-05-24T08:48:02.793Z,21.47
2018-05-24T08:50:31.116Z,21.53
2018-05-24T08:52:59.460Z,21.62
2018-05-24T08:55:27.784Z,21.58
2018-05-24T08:57:56.137Z,21.68
2018-05-24T09:00:24.461Z,21.75
2018-05-24T09:02:52.817Z,21.86
2018-05-24T09:05:21.149Z,21.91
2018-05-24T09:07:49.496Z,21.82
2018-05-24T09:10:17.823Z,21.94
2018-05-24T09:12:46.172Z,21.82
2018-05-24T09:15:15.409Z,21.81
2018-05-24T09:17:43.760Z,21.82
2018-05-24T09:20:12.104Z,21.87
2018-05-24T09:22:40.436Z,21.93
2018-05-24T09:25:08.768Z,21.97
2018-05-24T09:27:37.118Z,22.00
2018-05-24T09:30:05.444Z,22.09
2018-05-24T09:32:33.796Z,22.24
2018-05-24T09:35:02.997Z,22.34
2018-05-24T09:37:31.357Z,22.41
2018-05-24T09:39:59.689Z,22.50
2018-05-24T09:42:28.045Z,22.71
2018-05-24T09:44:56.372Z,22.87
2018-05-24T09:47:24.736Z,23.01
2018-05-24T09:49:53.069Z,23.19
2018-05-24T09:52:21.416Z,23.24
2018-05-24T09:54:50.767Z,23.34
2018-05-24T09:57:19.112Z,23.57
2018-05-24T09:59:47.617Z,23.71
2018-05-24T10:02:15.987Z,23.93
2018-05-24T10:04:44.326Z,24.06
2018-05-24T10:07:12.673Z,24.13
2018-05-24T10:09:41.005Z,24.23
2018-05-24T10:12:09.444Z,24.24
2018-05-24T10:14:37.819Z,24.32
2018-05-24T10:17:06.188Z,24.26
2018-05-24T10:19:34.549Z,24.13
2018-05-24T10:22:02.884Z,24.11
2018-05-24T10:24:31.208Z,24.23
2018-05-24T10:26:59.570Z,24.24
2018-05-24T10:29:27.948Z,24.26
2018-05-24T10:31:56.259Z,24.22
2018-05-24T10:34:24.606Z,24.18
2018-05-24T10:36:52.934Z,24.25
2018-05-24T10:39:21.290Z,24.30
2018-05-24T10:41:49.613Z,24.21
2018-05-24T10:44:17.962Z,24.37
2018-05-24T10:46:46.297Z,24.44
2018-05-24T10:49:14.649Z,24.33
2018-05-24T10:51:42.973Z,24.23
2018-05-24T10:54:11.327Z,24.22
2018-05-24T10:56:39.664Z,24.19
2018-05-24T10:59:07.995Z,24.17
2018-05-24T11:01:36.325Z,24.10
2018-05-24T11:04:04.681Z,24.21
2018-05-24T11:06:33.008Z,24.27
2018-05-24T11:09:01.360Z,24.29
2018-05-24T11:11:29.684Z,24.27
2018-05-24T11:13:58.037Z,24.41
2018-05-24T11:16:26.365Z,24.36
2018-05-24T11:18:54.709Z,24.37
2018-05-24T11:21:23.036Z,24.46
2018-05-24T11:23:51.384Z,24.39
2018-05-24T11:26:19.708Z,24.48
2018-05-24T11:28:48.069Z,24.55
2018-05-24T11:31:16.392Z,24.47
2018-05-24T11:33:44.741Z,24.40
2018-05-24T11:36:13.069Z,24.52
2018-05-24T11:38:41.653Z,24.55
2018-05-24T11:41:09.981Z,24.60
2018-05-24T11:43:38.341Z,24.68
2018-05-24T11:46:06.671Z,24.55
2018-05-24T11:48:35.017Z,24.63
2018-05-24T11:51:03.348Z,24.75
2018-05-24T11:53:31.700Z,24.73
2018-05-24T11:56:00.029Z,24.71
2018-05-24T11:58:28.373Z,24.72
2018-05-24T12:00:56.692Z,24.74
2018-05-24T12:03:25.062Z,24.68
2018-05-24T12:05:53.384Z,24.67
2018-05-24T12:08:21.733Z,24.57
2018-05-24T12:10:50.064Z,24.53
2018-05-24T12:13:18.412Z,24.46
2018-05-24T12:15:46.740Z,24.47
2018-05-24T12:18:15.093Z,24.36
2018-05-24T12:20:43.420Z,24.22
2018-05-24T12:23:11.768Z,24.17
2018-05-24T12:25:40.121Z,24.25
2018-05-24T12:28:08.452Z,24.26
2018-05-24T12:30:36.795Z,24.40
2018-05-24T12:33:05.125Z,24.60
2018-05-24T12:35:33.589Z,24.88
2018-05-24T12:38:01.801Z,25.08
2018-05-24T12:40:30.153Z,25.26
2018-05-24T12:42:58.480Z,25.24
2018-05-24T12:45:26.824Z,25.19
2018-05-24T12:47:55.163Z,25.21
2018-05-24T12:50:23.519Z,25.14
2018-05-24T12:52:51.844Z,24.89
2018-05-24T12:55:20.194Z,24.92
2018-05-24T12:57:48.612Z,24.74
2018-05-24T13:00:16.881Z,24.60
2018-05-24T13:02:45.229Z,24.65
2018-05-24T13:05:13.681Z,24.71
2018-05-24T13:07:42.512Z,24.71
2018-05-24T13:10:10.875Z,24.80
2018-05-24T13:12:39.229Z,24.72
2018-05-24T13:15:07.577Z,24.69
2018-05-24T13:17:35.904Z,24.53
2018-05-24T13:20:04.256Z,24.58
2018-05-24T13:22:32.664Z,24.51
2018-05-24T13:25:01.008Z,24.48
2018-05-24T13:27:29.337Z,24.38
2018-05-24T13:29:57.693Z,24.49
2018-05-24T13:32:26.025Z,24.57
2018-05-24T13:34:54.377Z,24.58
2018-05-24T13:37:22.708Z,24.67
2018-05-24T13:39:51.057Z,24.79
2018-05-24T13:42:19.385Z,24.91
2018-05-24T13:44:47.741Z,24.93
2018-05-24T13:47:16.089Z,24.88
2018-05-24T13:49:44.432Z,24.87
2018-05-24T13:52:12.796Z,24.88
2018-05-24T13:54:41.252Z,24.95
2018-05-24T13:57:09.585Z,25.01
2018-05-24T13:59:37.941Z,25.05
2018-05-24T14:02:06.272Z,24.85
2018-05-24T14:04:35.541Z,24.79
2018-05-24T14:07:03.869Z,24.80
2018-05-24T14:09:32.216Z,24.65
2018-05-24T14:12:00.555Z,24.61
2018-05-24T14:14:28.905Z,24.64
2018-05-24T14:16:57.235Z,24.66
2018-05-24T14:19:25.583Z,24.80
2018-05-24T14:21:53.912Z,24.85
2018-05-24T14:24:22.264Z,24.82
2018-05-24T14:26:50.633Z,24.93
2018-05-24T14:29:18.964Z,24.95
2018-05-24T14:31:47.313Z,25.12
2018-05-24T14:34:15.649Z,25.27
2018-05-24T14:36:43.992Z,25.32
2018-05-24T14:39:12.332Z,25.39
2018-05-24T14:41:40.687Z,25.50
2018-05-24T14:44:09.015Z,25.48
2018-05-24T14:46:37.363Z,25.54
2018-05-24T14:49:05.692Z,25.42
2018-05-24T14:51:34.035Z,25.41
2018-05-24T14:54:02.369Z,25.43
2018-05-24T14:56:30.720Z,25.44
2018-05-24T14:58:59.075Z,25.48
2018-05-24T15:01:28.396Z,25.57
2018-05-24T15:03:56.729Z,25.64
2018-05-24T15:06:25.076Z,25.70
2018-05-24T15:08:53.407Z,25.72
2018-05-24T15:11:21.772Z,25.61
2018-05-24T15:13:50.105Z,25.69
2018-05-24T15:16:18.456Z,25.76
2018-05-24T15:18:46.793Z,25.78
2018-05-24T15:21:15.147Z,25.70
2018-05-24T15:23:43.469Z,25.52
2018-05-24T15:26:11.817Z,25.46
2018-05-24T15:28:40.141Z,25.47
2018-05-24T15:31:08.484Z,25.45
2018-05-24T15:33:36.815Z,25.40
2018-05-24T15:36:05.177Z,25.44
2018-05-24T15:38:33.501Z,25.49
2018-05-24T15:41:01.847Z,25.43
2018-05-24T15:43:30.181Z,25.56
2018-05-24T15:45:58.534Z,25.45
2018-05-24T15:48:26.848Z,25.48
2018-05-24T15:50:55.206Z,25.66
2018-05-24T15:53:23.535Z,25.68
2018-05-24T15:55:51.880Z,25.64
2018-05-24T15:58:20.212Z,25.54
2018-05-24T16:00:48.552Z,25.68
2018-05-24T16:03:16.884Z,25.68
2018-05-24T16:05:45.228Z,25.71
2018-05-24T16:08:14.141Z,25.76
2018-05-24T16:10:42.488Z,25.53
2018-05-24T16:13:10.816Z,25.58
2018-05-24T16:15:39.176Z,25.68
2018-05-24T16:18:07.497Z,25.48
2018-05-24T16:20:35.850Z,25.28
2018-05-24T16:23:04.192Z,25.14
2018-05-24T16:25:32.565Z,25.06
2018-05-24T16:28:00.897Z,25.06
2018-05-24T16:30:29.216Z,25.05
2018-05-24T16:32:57.577Z,25.01
2018-05-24T16:35:25.910Z,25.10
2018-05-24T16:37:54.899Z,25.17
2018-05-24T16:40:23.228Z,25.09
2018-05-24T16:42:51.572Z,25.09
2018-05-24T16:45:19.896Z,24.90
2018-05-24T16:47:48.253Z,24.84
2018-05-24T16:50:16.590Z,24.80
2018-05-24T16:52:44.975Z,24.73
2018-05-24T16:55:13.324Z,24.75
2018-05-24T16:57:41.661Z,24.64
2018-05-24T17:00:09.995Z,24.61
2018-05-24T17:02:38.339Z,24.65
2018-05-24T17:05:06.681Z,24.64
2018-05-24T17:07:35.024Z,24.62
2018-05-24T17:10:03.368Z,24.52
2018-05-24T17:12:31.751Z,24.40
2018-05-24T17:15:00.052Z,24.33
2018-05-24T17:17:29.370Z,24.40
2018-05-24T17:19:57.716Z,24.36
2018-05-24T17:22:26.052Z,24.32
2018-05-24T17:24:54.385Z,24.31
2018-05-24T17:27:22.753Z,24.29
2018-05-24T17:29:51.082Z,24.28
2018-05-24T17:32:19.437Z,24.26
2018-05-24T17:34:47.769Z,24.27
2018-05-24T17:37:16.112Z,24.20
2018-05-24T17:39:44.436Z,24.17
2018-05-24T17:42:12.783Z,24.20
2018-05-24T17:44:41.116Z,24.18
2018-05-24T17:47:09.473Z,24.13
2018-05-24T17:49:37.807Z,24.11
2018-05-24T17:52:06.152Z,24.11
2018-05-24T17:54:34.488Z,24.06
2018-05-24T17:57:03.616Z,24.05
2018-05-24T17:59:31.949Z,24.02
2018-05-24T18:02:00.292Z,24.04
2018-05-24T18:04:28.628Z,24.02
2018-05-24T18:06:56.981Z,23.99
2018-05-24T18:09:25.311Z,23.99
2018-05-24T18:11:53.662Z,23.98
2018-05-24T18:14:21.994Z,23.99
2018-05-24T18:16:51.220Z,23.99
2018-05-24T18:19:19.543Z,23.94
2018-05-24T18:21:47.898Z,23.95
2018-05-24T18:24:16.220Z,23.87
2018-05-24T18:26:44.569Z,23.90
2018-05-24T18:29:12.916Z,23.87
2018-05-24T18:31:41.256Z,23.83
2018-05-24T18:34:09.605Z,23.76
2018-05-24T18:36:37.931Z,23.75
2018-05-24T18:39:06.289Z,23.70
2018-05-24T18:41:34.618Z,23.61
2018-05-24T18:44:02.964Z,23.60
2018-05-24T18:46:31.310Z,23.57
2018-05-24T18:48:59.688Z,23.62
2018-05-24T18:51:28.023Z,23.65
2018-05-24T18:53:56.369Z,23.63
2018-05-24T18:56:24.700Z,23.61
2018-05-24T18:58:53.054Z,23.62
2018-05-24T19:01:21.379Z,23.69
2018-05-24T19:03:49.724Z,23.68
2018-05-24T19:06:18.059Z,23.65
2018-05-24T19:08:46.408Z,23.62
2018-05-24T19:11:14.756Z,23.58
2018-05-24T19:13:43.101Z,23.55
2018-05-24T19:16:11.424Z,23.55
2018-05-24T19:18:39.777Z,23.56
2018-05-24T19:21:08.112Z,23.49
2018-05-24T19:23:36.482Z,23.39
2018-05-24T19:26:04.829Z,23.31
2018-05-24T19:28:33.183Z,23.13
2018-05-24T19:31:01.541Z,23.06
2018-05-24T19:33:29.892Z,23.01
2018-05-24T19:35:58.231Z,22.89
2018-05-24T19:38:26.573Z,22.88
2018-05-24T19:40:54.907Z,22.97
2018-05-24T19:43:23.260Z,23.02
2018-05-24T19:45:51.589Z,22.97
2018-05-24T19:48:19.945Z,22.89
2018-05-24T19:50:48.277Z,22.88
2018-05-24T19:53:16.641Z,22.82
2018-05-24T19:55:45.034Z,22.81
2018-05-24T19:58:13.604Z,22.79
2018-05-24T20:00:41.940Z,22.78
2018-05-24T20:03:10.316Z,22.78
2018-05-24T20:05:38.658Z,22.68
2018-05-24T20:08:07.017Z,22.70
2018-05-24T20:10:35.345Z,22.65
2018-05-24T20:13:03.720Z,22.70
2018-05-24T20:15:32.026Z,22.78
2018-05-24T20:18:00.380Z,22.78
2018-05-24T20:20:28.723Z,22.73
2018-05-24T20:22:57.101Z,22.71
2018-05-24T20:25:25.409Z,22.76
2018-05-24T20:27:53.769Z,22.72
2018-05-24T20:30:22.666Z,22.66
2018-05-24T20:32:51.089Z,22.49
2018-05-24T20:35:19.430Z,22.41
2018-05-24T20:37:47.765Z,22.43
2018-05-24T20:40:16.121Z,22.41
2018-05-24T20:42:44.453Z,22.41
2018-05-24T20:45:12.809Z,22.45
2018-05-24T20:47:41.128Z,22.33
2018-05-24T20:50:09.765Z,22.33
2018-05-24T20:52:38.072Z,22.35
2018-05-24T20:55:06.434Z,22.29
2018-05-24T20:57:34.768Z,22.20
2018-05-24T21:00:03.324Z,22.17
2018-05-24T21:02:31.648Z,22.17
2018-05-24T21:04:59.995Z,22.10
2018-05-24T21:07:28.323Z,22.12
2018-05-24T21:09:57.257Z,22.09
2018-05-24T21:12:25.589Z,22.03
2018-05-24T21:14:53.945Z,22.09
2018-05-24T21:17:22.272Z,22.00
2018-05-24T21:19:50.626Z,21.96
2018-05-24T21:22:18.966Z,21.90
2018-05-24T21:24:47.320Z,21.84
2018-05-24T21:27:15.656Z,21.81
2018-05-24T21:29:44.024Z,21.77
2018-05-24T21:32:12.360Z,21.80
2018-05-24T21:34:40.717Z,21.81
2018-05-24T21:37:09.048Z,21.85
2018-05-24T21:39:37.400Z,21.92
2018-05-24T21:42:05.741Z,21.89
2018-05-24T21:44:34.091Z,21.82
2018-05-24T21:47:02.424Z,21.80
2018-05-24T21:49:30.776Z,21.72
2018-05-24T21:51:59.108Z,21.75
2018-05-24T21:54:27.473Z,21.77
2018-05-24T21:56:55.804Z,21.72
2018-05-24T21:59:24.161Z,21.81
2018-05-24T22:01:52.503Z,21.81
2018-05-24T22:04:20.859Z,21.77
2018-05-24T22:06:49.193Z,21.71
2018-05-24T22:09:17.545Z,21.71
2018-05-24T22:11:45.886Z,21.70
2018-05-24T22:14:14.251Z,21.79
2018-05-24T22:16:42.594Z,21.87
2018-05-24T22:19:11.320Z,21.87
2018-05-24T22:21:39.665Z,21.86
2018-05-24T22:24:08.016Z,21.82
2018-05-24T22:26:36.349Z,21.80
2018-05-24T22:29:04.705Z,21.79
2018-05-24T22:31:33.037Z,21.81
2018-05-24T22:34:01.372Z,21.68
2018-05-24T22:36:29.733Z,21.65
2018-05-24T22:38:58.072Z,21.55
2018-05-24T22:41:26.432Z,21.56
2018-05-24T22:43:54.772Z,21.47
2018-05-24T22:46:23.136Z,21.40
2018-05-24T22:48:51.476Z,21.39
2018-05-24T22:51:19.832Z,21.40
2018-05-24T22:53:48.175Z,21.28
2018-05-24T22:56:16.523Z,21.29
2018-05-24T22:58:44.866Z,21.30
2018-05-24T23:01:13.220Z,21.33
2018-05-24T23:03:41.557Z,21.40
2018-05-24T23:06:09.904Z,21.39
2018-05-24T23:08:38.233Z,21.35
2018-05-24T23:11:06.585Z,21.27
2018-05-24T23:13:34.909Z,21.31
2018-05-24T23:16:03.257Z,21.35
2018-05-24T23:18:31.582Z,21.28
2018-05-24T23:20:59.928Z,21.26
2018-05-24T23:23:28.253Z,21.33
2018-05-24T23:28:36.889Z,21.45
2018-05-24T23:31:05.232Z,21.44
2018-05-24T23:33:33.551Z,21.46
2018-05-24T23:36:01.896Z,21.48
2018-05-24T23:38:30.213Z,21.54
2018-05-24T23:40:58.552Z,21.52
2018-05-24T23:43:26.876Z,21.49
2018-05-24T23:45:55.229Z,21.41
2018-05-24T23:48:23.547Z,21.44
2018-05-24T23:50:51.896Z,21.44
2018-05-24T23:53:20.217Z,21.48
2018-05-24T23:55:48.555Z,21.45
2018-05-24T23:58:16.881Z,21.43
